sensor_id;sensor_type;location;lat;lon;timestamp;temperature;humidity
8643;DHT22;4359;49.358;11.256;2023-02-19T00:01:40;8.40;99.90
8643;DHT22;4359;49.358;11.256;2023-02-19T00:06:34;8.30;99.90
8643;DHT22;4359;49.358;11.256;2023-02-19T00:09:00;8.20;99.90
8643;DHT22;4359;49.358;11.256;2023-02-19T00:11:29;8.20;99.90
8643;DHT22;4359;49.358;11.256;2023-02-19T00:13:56;8.20;99.90
8643;DHT22;4359;49.358;11.256;2023-02-19T00:16:27;8.20;99.90
8643;DHT22;4359;49.358;11.256;2023-02-19T00:18:54;8.20;99.90
8643;DHT22;4359;49.358;11.256;2023-02-19T00:21:21;8.10;99.90
8643;DHT22;4359;49.358;11.256;2023-02-19T00:23:51;8.10;99.90
8643;DHT22;4359;49.358;11.256;2023-02-19T00:26:17;8.00;99.90
8643;DHT22;4359;49.358;11.256;2023-02-19T00:28:44;8.00;99.90
8643;DHT22;4359;49.358;11.256;2023-02-19T00:33:47;8.00;99.90
8643;DHT22;4359;49.358;11.256;2023-02-19T00:36:13;8.00;99.90
8643;DHT22;4359;49.358;11.256;2023-02-19T00:38:40;8.00;99.90
8643;DHT22;4359;49.358;11.256;2023-02-19T00:41:07;8.00;99.90
8643;DHT22;4359;49.358;11.256;2023-02-19T00:44:01;8.00;99.90
8643;DHT22;4359;49.358;11.256;2023-02-19T00:46:29;8.10;99.90
8643;DHT22;4359;49.358;11.256;2023-02-19T00:48:55;8.10;99.90
8643;DHT22;4359;49.358;11.256;2023-02-19T00:51:23;8.10;99.90
8643;DHT22;4359;49.358;11.256;2023-02-19T00:53:49;8.20;99.90
8643;DHT22;4359;49.358;11.256;2023-02-19T00:56:14;8.20;99.90
8643;DHT22;4359;49.358;11.256;2023-02-19T00:58:40;8.20;99.90
8643;DHT22;4359;49.358;11.256;2023-02-19T01:01:06;8.20;99.90
8643;DHT22;4359;49.358;11.256;2023-02-19T01:03:33;8.10;99.90
8643;DHT22;4359;49.358;11.256;2023-02-19T01:05:59;8.10;99.90
8643;DHT22;4359;49.358;11.256;2023-02-19T01:08:25;8.10;99.90
8643;DHT22;4359;49.358;11.256;2023-02-19T01:10:51;8.00;99.90
8643;DHT22;4359;49.358;11.256;2023-02-19T01:13:18;8.00;99.90
8643;DHT22;4359;49.358;11.256;2023-02-19T01:15:43;7.90;99.90
8643;DHT22;4359;49.358;11.256;2023-02-19T01:18:10;7.90;99.90
8643;DHT22;4359;49.358;11.256;2023-02-19T01:20:41;7.90;99.90
8643;DHT22;4359;49.358;11.256;2023-02-19T01:23:07;7.90;99.90
8643;DHT22;4359;49.358;11.256;2023-02-19T01:25:33;7.70;99.90
8643;DHT22;4359;49.358;11.256;2023-02-19T01:27:59;7.80;99.90
8643;DHT22;4359;49.358;11.256;2023-02-19T01:30:25;7.70;99.90
8643;DHT22;4359;49.358;11.256;2023-02-19T01:32:50;7.80;99.90
8643;DHT22;4359;49.358;11.256;2023-02-19T01:35:16;7.80;99.90
8643;DHT22;4359;49.358;11.256;2023-02-19T01:40:10;7.80;99.90
8643;DHT22;4359;49.358;11.256;2023-02-19T01:42:35;7.70;99.90
8643;DHT22;4359;49.358;11.256;2023-02-19T01:45:28;7.70;99.90
8643;DHT22;4359;49.358;11.256;2023-02-19T01:48:16;7.60;99.90
8643;DHT22;4359;49.358;11.256;2023-02-19T01:51:08;7.60;99.90
8643;DHT22;4359;49.358;11.256;2023-02-19T01:53:34;7.70;99.90
8643;DHT22;4359;49.358;11.256;2023-02-19T01:56:02;7.70;99.90
8643;DHT22;4359;49.358;11.256;2023-02-19T01:58:32;7.70;99.90
8643;DHT22;4359;49.358;11.256;2023-02-19T02:01:00;7.70;99.90
8643;DHT22;4359;49.358;11.256;2023-02-19T02:03:27;7.70;99.90
8643;DHT22;4359;49.358;11.256;2023-02-19T02:06:04;7.70;99.90
8643;DHT22;4359;49.358;11.256;2023-02-19T02:08:32;7.60;99.90
8643;DHT22;4359;49.358;11.256;2023-02-19T02:11:18;7.70;99.90
8643;DHT22;4359;49.358;11.256;2023-02-19T02:13:44;7.70;99.90
8643;DHT22;4359;49.358;11.256;2023-02-19T02:16:23;7.60;99.90
8643;DHT22;4359;49.358;11.256;2023-02-19T02:19:21;7.70;99.90
8643;DHT22;4359;49.358;11.256;2023-02-19T02:24:52;7.70;99.90
8643;DHT22;4359;49.358;11.256;2023-02-19T02:35:53;7.80;99.90
8643;DHT22;4359;49.358;11.256;2023-02-19T02:38:25;7.80;99.90
8643;DHT22;4359;49.358;11.256;2023-02-19T02:40:53;7.80;99.90
8643;DHT22;4359;49.358;11.256;2023-02-19T02:43:19;7.80;99.90
8643;DHT22;4359;49.358;11.256;2023-02-19T02:45:45;7.80;99.90
8643;DHT22;4359;49.358;11.256;2023-02-19T02:51:16;7.90;99.90
8643;DHT22;4359;49.358;11.256;2023-02-19T02:53:36;7.80;99.90
8643;DHT22;4359;49.358;11.256;2023-02-19T02:56:22;7.90;99.90
8643;DHT22;4359;49.358;11.256;2023-02-19T02:58:50;7.90;99.90
8643;DHT22;4359;49.358;11.256;2023-02-19T03:01:27;7.90;99.90
8643;DHT22;4359;49.358;11.256;2023-02-19T03:04:18;7.90;99.90
8643;DHT22;4359;49.358;11.256;2023-02-19T03:06:46;7.90;99.90
8643;DHT22;4359;49.358;11.256;2023-02-19T03:09:18;7.90;99.90
8643;DHT22;4359;49.358;11.256;2023-02-19T03:11:48;7.90;99.90
8643;DHT22;4359;49.358;11.256;2023-02-19T03:14:37;7.90;99.90
8643;DHT22;4359;49.358;11.256;2023-02-19T03:17:33;7.90;99.90
8643;DHT22;4359;49.358;11.256;2023-02-19T03:20:20;7.90;99.90
8643;DHT22;4359;49.358;11.256;2023-02-19T03:22:48;7.80;99.90
8643;DHT22;4359;49.358;11.256;2023-02-19T03:25:24;7.90;99.90
8643;DHT22;4359;49.358;11.256;2023-02-19T03:28:12;7.90;99.90
8643;DHT22;4359;49.358;11.256;2023-02-19T03:30:51;8.00;99.90
8643;DHT22;4359;49.358;11.256;2023-02-19T03:33:25;7.90;99.90
8643;DHT22;4359;49.358;11.256;2023-02-19T03:35:57;7.90;99.90
8643;DHT22;4359;49.358;11.256;2023-02-19T03:38:38;7.90;99.90
8643;DHT22;4359;49.358;11.256;2023-02-19T03:41:17;7.90;99.90
8643;DHT22;4359;49.358;11.256;2023-02-19T03:44:19;8.00;99.90
8643;DHT22;4359;49.358;11.256;2023-02-19T04:00:41;8.00;99.90
8643;DHT22;4359;49.358;11.256;2023-02-19T04:06:08;8.00;99.90
8643;DHT22;4359;49.358;11.256;2023-02-19T04:08:36;8.00;99.90
8643;DHT22;4359;49.358;11.256;2023-02-19T04:11:03;8.00;99.90
8643;DHT22;4359;49.358;11.256;2023-02-19T04:14:01;8.10;99.90
8643;DHT22;4359;49.358;11.256;2023-02-19T04:16:29;8.00;99.90
8643;DHT22;4359;49.358;11.256;2023-02-19T04:19:01;8.00;99.90
8643;DHT22;4359;49.358;11.256;2023-02-19T04:21:31;8.00;99.90
8643;DHT22;4359;49.358;11.256;2023-02-19T04:24:13;8.00;99.90
8643;DHT22;4359;49.358;11.256;2023-02-19T04:26:40;8.00;99.90
8643;DHT22;4359;49.358;11.256;2023-02-19T04:29:06;8.00;99.90
8643;DHT22;4359;49.358;11.256;2023-02-19T04:31:32;8.00;99.90
8643;DHT22;4359;49.358;11.256;2023-02-19T04:34:01;8.10;99.90
8643;DHT22;4359;49.358;11.256;2023-02-19T04:36:28;8.10;99.90
8643;DHT22;4359;49.358;11.256;2023-02-19T04:38:54;8.10;99.90
8643;DHT22;4359;49.358;11.256;2023-02-19T04:41:20;8.00;99.90
8643;DHT22;4359;49.358;11.256;2023-02-19T04:43:45;8.00;99.90
8643;DHT22;4359;49.358;11.256;2023-02-19T04:46:11;8.00;99.90
8643;DHT22;4359;49.358;11.256;2023-02-19T04:48:36;8.00;99.90
8643;DHT22;4359;49.358;11.256;2023-02-19T04:51:06;7.90;99.90
8643;DHT22;4359;49.358;11.256;2023-02-19T04:53:32;7.90;99.90
8643;DHT22;4359;49.358;11.256;2023-02-19T04:56:03;7.90;99.90
8643;DHT22;4359;49.358;11.256;2023-02-19T04:58:30;7.90;99.90
8643;DHT22;4359;49.358;11.256;2023-02-19T05:00:55;7.90;99.90
8643;DHT22;4359;49.358;11.256;2023-02-19T05:03:21;7.90;99.90
8643;DHT22;4359;49.358;11.256;2023-02-19T05:05:46;7.80;99.90
8643;DHT22;4359;49.358;11.256;2023-02-19T05:08:12;7.80;99.90
8643;DHT22;4359;49.358;11.256;2023-02-19T05:10:38;7.90;99.90
8643;DHT22;4359;49.358;11.256;2023-02-19T05:13:03;7.90;99.90
8643;DHT22;4359;49.358;11.256;2023-02-19T05:15:29;7.90;99.90
8643;DHT22;4359;49.358;11.256;2023-02-19T05:17:55;7.90;99.90
8643;DHT22;4359;49.358;11.256;2023-02-19T05:20:20;7.90;99.90
8643;DHT22;4359;49.358;11.256;2023-02-19T05:22:47;7.80;99.90
8643;DHT22;4359;49.358;11.256;2023-02-19T05:25:13;7.90;99.90
8643;DHT22;4359;49.358;11.256;2023-02-19T05:27:38;7.90;99.90
8643;DHT22;4359;49.358;11.256;2023-02-19T05:30:04;7.90;99.90
8643;DHT22;4359;49.358;11.256;2023-02-19T05:32:30;7.90;99.90
8643;DHT22;4359;49.358;11.256;2023-02-19T05:34:56;7.90;99.90
8643;DHT22;4359;49.358;11.256;2023-02-19T05:37:21;7.90;99.90
8643;DHT22;4359;49.358;11.256;2023-02-19T05:39:48;7.90;99.90
8643;DHT22;4359;49.358;11.256;2023-02-19T05:42:13;7.90;99.90
8643;DHT22;4359;49.358;11.256;2023-02-19T05:44:40;7.90;99.90
8643;DHT22;4359;49.358;11.256;2023-02-19T05:47:06;7.90;99.90
8643;DHT22;4359;49.358;11.256;2023-02-19T05:49:31;7.90;99.90
8643;DHT22;4359;49.358;11.256;2023-02-19T05:51:57;7.90;99.90
8643;DHT22;4359;49.358;11.256;2023-02-19T05:54:22;7.90;99.90
8643;DHT22;4359;49.358;11.256;2023-02-19T05:56:48;7.90;99.90
8643;DHT22;4359;49.358;11.256;2023-02-19T05:59:15;7.90;99.90
8643;DHT22;4359;49.358;11.256;2023-02-19T06:01:41;7.90;99.90
8643;DHT22;4359;49.358;11.256;2023-02-19T06:04:07;7.90;99.90
8643;DHT22;4359;49.358;11.256;2023-02-19T06:06:33;7.90;99.90
8643;DHT22;4359;49.358;11.256;2023-02-19T06:08:59;7.90;99.90
8643;DHT22;4359;49.358;11.256;2023-02-19T06:11:24;8.00;99.90
8643;DHT22;4359;49.358;11.256;2023-02-19T06:13:50;8.00;99.90
8643;DHT22;4359;49.358;11.256;2023-02-19T06:16:16;8.00;99.90
8643;DHT22;4359;49.358;11.256;2023-02-19T06:18:43;8.00;99.90
8643;DHT22;4359;49.358;11.256;2023-02-19T06:21:10;8.00;99.90
8643;DHT22;4359;49.358;11.256;2023-02-19T06:23:38;8.00;99.90
8643;DHT22;4359;49.358;11.256;2023-02-19T06:26:07;8.00;99.90
8643;DHT22;4359;49.358;11.256;2023-02-19T06:28:33;8.00;99.90
8643;DHT22;4359;49.358;11.256;2023-02-19T06:30:59;7.90;99.90
8643;DHT22;4359;49.358;11.256;2023-02-19T06:33:26;7.80;99.90
8643;DHT22;4359;49.358;11.256;2023-02-19T06:35:52;7.80;99.90
8643;DHT22;4359;49.358;11.256;2023-02-19T06:38:20;7.70;99.90
8643;DHT22;4359;49.358;11.256;2023-02-19T06:40:45;7.70;99.90
8643;DHT22;4359;49.358;11.256;2023-02-19T06:43:11;7.70;99.90
8643;DHT22;4359;49.358;11.256;2023-02-19T06:45:36;7.70;99.90
8643;DHT22;4359;49.358;11.256;2023-02-19T06:48:02;7.70;99.90
8643;DHT22;4359;49.358;11.256;2023-02-19T06:50:28;7.70;99.90
8643;DHT22;4359;49.358;11.256;2023-02-19T06:52:53;7.80;99.90
8643;DHT22;4359;49.358;11.256;2023-02-19T06:55:19;7.80;99.90
8643;DHT22;4359;49.358;11.256;2023-02-19T06:57:45;7.80;99.90
8643;DHT22;4359;49.358;11.256;2023-02-19T07:00:10;7.90;99.90
8643;DHT22;4359;49.358;11.256;2023-02-19T07:02:36;7.90;99.90
8643;DHT22;4359;49.358;11.256;2023-02-19T07:05:02;7.90;99.90
8643;DHT22;4359;49.358;11.256;2023-02-19T07:07:27;7.90;99.90
8643;DHT22;4359;49.358;11.256;2023-02-19T07:09:53;8.00;99.90
8643;DHT22;4359;49.358;11.256;2023-02-19T07:12:18;8.00;99.90
8643;DHT22;4359;49.358;11.256;2023-02-19T07:14:44;8.00;99.90
8643;DHT22;4359;49.358;11.256;2023-02-19T07:17:10;8.00;99.90
8643;DHT22;4359;49.358;11.256;2023-02-19T07:19:35;8.10;99.90
8643;DHT22;4359;49.358;11.256;2023-02-19T07:22:01;8.10;99.90
8643;DHT22;4359;49.358;11.256;2023-02-19T07:24:26;8.10;99.90
8643;DHT22;4359;49.358;11.256;2023-02-19T07:26:52;8.10;99.90
8643;DHT22;4359;49.358;11.256;2023-02-19T07:29:18;8.20;99.90
8643;DHT22;4359;49.358;11.256;2023-02-19T07:31:43;8.30;99.90
8643;DHT22;4359;49.358;11.256;2023-02-19T07:34:09;8.20;99.90
8643;DHT22;4359;49.358;11.256;2023-02-19T07:36:34;8.20;99.90
8643;DHT22;4359;49.358;11.256;2023-02-19T07:39:00;8.40;99.90
8643;DHT22;4359;49.358;11.256;2023-02-19T07:41:26;8.30;99.90
8643;DHT22;4359;49.358;11.256;2023-02-19T07:43:52;8.30;99.90
8643;DHT22;4359;49.358;11.256;2023-02-19T07:46:18;8.30;99.90
8643;DHT22;4359;49.358;11.256;2023-02-19T07:48:44;8.40;99.90
8643;DHT22;4359;49.358;11.256;2023-02-19T07:51:16;8.40;99.90
8643;DHT22;4359;49.358;11.256;2023-02-19T07:53:47;8.40;99.90
8643;DHT22;4359;49.358;11.256;2023-02-19T07:56:14;8.50;99.90
8643;DHT22;4359;49.358;11.256;2023-02-19T07:58:40;8.50;99.90
8643;DHT22;4359;49.358;11.256;2023-02-19T08:01:13;8.60;99.90
8643;DHT22;4359;49.358;11.256;2023-02-19T08:03:39;8.50;99.90
8643;DHT22;4359;49.358;11.256;2023-02-19T08:06:05;8.60;99.90
8643;DHT22;4359;49.358;11.256;2023-02-19T08:08:31;8.70;99.90
8643;DHT22;4359;49.358;11.256;2023-02-19T08:11:04;8.70;99.90
8643;DHT22;4359;49.358;11.256;2023-02-19T08:13:49;8.70;99.90
8643;DHT22;4359;49.358;11.256;2023-02-19T08:16:16;8.60;99.90
8643;DHT22;4359;49.358;11.256;2023-02-19T08:18:45;8.60;99.90
8643;DHT22;4359;49.358;11.256;2023-02-19T08:21:11;8.60;99.90
8643;DHT22;4359;49.358;11.256;2023-02-19T08:23:36;8.60;99.90
8643;DHT22;4359;49.358;11.256;2023-02-19T08:26:02;8.60;99.90
8643;DHT22;4359;49.358;11.256;2023-02-19T08:28:29;8.60;99.90
8643;DHT22;4359;49.358;11.256;2023-02-19T08:31:02;8.70;99.90
8643;DHT22;4359;49.358;11.256;2023-02-19T08:33:29;8.70;99.90
8643;DHT22;4359;49.358;11.256;2023-02-19T08:35:55;8.70;99.90
8643;DHT22;4359;49.358;11.256;2023-02-19T08:38:21;8.80;99.90
8643;DHT22;4359;49.358;11.256;2023-02-19T08:40:47;8.80;99.90
8643;DHT22;4359;49.358;11.256;2023-02-19T08:43:14;8.90;99.90
8643;DHT22;4359;49.358;11.256;2023-02-19T08:45:42;8.90;99.90
8643;DHT22;4359;49.358;11.256;2023-02-19T08:48:09;9.00;99.90
8643;DHT22;4359;49.358;11.256;2023-02-19T08:50:35;9.00;99.90
8643;DHT22;4359;49.358;11.256;2023-02-19T08:53:02;9.00;99.90
8643;DHT22;4359;49.358;11.256;2023-02-19T08:55:28;9.00;99.90
8643;DHT22;4359;49.358;11.256;2023-02-19T08:57:54;8.90;99.90
8643;DHT22;4359;49.358;11.256;2023-02-19T09:00:19;8.90;99.90
8643;DHT22;4359;49.358;11.256;2023-02-19T09:02:46;8.90;99.90
8643;DHT22;4359;49.358;11.256;2023-02-19T09:05:12;9.00;99.90
8643;DHT22;4359;49.358;11.256;2023-02-19T09:07:39;9.00;99.90
8643;DHT22;4359;49.358;11.256;2023-02-19T09:10:05;9.00;99.90
8643;DHT22;4359;49.358;11.256;2023-02-19T09:12:30;9.00;99.90
8643;DHT22;4359;49.358;11.256;2023-02-19T09:14:58;9.10;99.90
8643;DHT22;4359;49.358;11.256;2023-02-19T09:17:24;9.30;99.90
8643;DHT22;4359;49.358;11.256;2023-02-19T09:19:50;9.40;99.90
8643;DHT22;4359;49.358;11.256;2023-02-19T09:22:15;9.50;99.90
8643;DHT22;4359;49.358;11.256;2023-02-19T09:24:42;9.60;99.90
8643;DHT22;4359;49.358;11.256;2023-02-19T09:27:15;9.50;99.90
8643;DHT22;4359;49.358;11.256;2023-02-19T09:29:41;9.50;99.90
8643;DHT22;4359;49.358;11.256;2023-02-19T09:32:06;9.60;99.90
8643;DHT22;4359;49.358;11.256;2023-02-19T09:34:32;9.60;99.90
8643;DHT22;4359;49.358;11.256;2023-02-19T09:36:58;9.60;99.90
8643;DHT22;4359;49.358;11.256;2023-02-19T09:39:23;9.60;99.90
8643;DHT22;4359;49.358;11.256;2023-02-19T09:42:28;9.60;99.90
8643;DHT22;4359;49.358;11.256;2023-02-19T09:44:56;9.60;99.90
8643;DHT22;4359;49.358;11.256;2023-02-19T09:47:27;9.60;99.90
8643;DHT22;4359;49.358;11.256;2023-02-19T09:49:57;9.60;99.90
8643;DHT22;4359;49.358;11.256;2023-02-19T09:55:16;9.40;99.90
8643;DHT22;4359;49.358;11.256;2023-02-19T09:57:43;9.40;99.90
8643;DHT22;4359;49.358;11.256;2023-02-19T10:02:36;9.30;99.90
8643;DHT22;4359;49.358;11.256;2023-02-19T10:05:02;9.30;99.90
8643;DHT22;4359;49.358;11.256;2023-02-19T10:07:38;9.30;99.90
8643;DHT22;4359;49.358;11.256;2023-02-19T10:10:25;9.20;99.90
8643;DHT22;4359;49.358;11.256;2023-02-19T10:12:54;9.20;99.90
8643;DHT22;4359;49.358;11.256;2023-02-19T10:15:37;9.30;99.90
8643;DHT22;4359;49.358;11.256;2023-02-19T10:18:04;9.40;99.90
8643;DHT22;4359;49.358;11.256;2023-02-19T10:20:31;9.30;99.90
8643;DHT22;4359;49.358;11.256;2023-02-19T10:23:06;9.30;99.90
8643;DHT22;4359;49.358;11.256;2023-02-19T10:25:33;9.40;99.90
8643;DHT22;4359;49.358;11.256;2023-02-19T10:28:00;9.30;99.90
8643;DHT22;4359;49.358;11.256;2023-02-19T10:30:30;9.10;99.90
8643;DHT22;4359;49.358;11.256;2023-02-19T10:33:11;9.20;99.90
8643;DHT22;4359;49.358;11.256;2023-02-19T10:41:04;9.20;99.90
8643;DHT22;4359;49.358;11.256;2023-02-19T10:43:36;9.30;99.90
8643;DHT22;4359;49.358;11.256;2023-02-19T10:46:07;9.20;99.90
8643;DHT22;4359;49.358;11.256;2023-02-19T10:48:49;9.30;99.90
8643;DHT22;4359;49.358;11.256;2023-02-19T10:51:18;9.30;99.90
8643;DHT22;4359;49.358;11.256;2023-02-19T10:53:48;9.40;99.90
8643;DHT22;4359;49.358;11.256;2023-02-19T10:56:25;9.40;99.90
8643;DHT22;4359;49.358;11.256;2023-02-19T10:58:53;9.40;99.90
8643;DHT22;4359;49.358;11.256;2023-02-19T11:01:21;9.60;99.90
8643;DHT22;4359;49.358;11.256;2023-02-19T11:03:52;9.70;99.90
8643;DHT22;4359;49.358;11.256;2023-02-19T11:06:36;9.80;99.90
8643;DHT22;4359;49.358;11.256;2023-02-19T11:09:02;9.70;99.90
8643;DHT22;4359;49.358;11.256;2023-02-19T11:11:36;9.70;99.90
8643;DHT22;4359;49.358;11.256;2023-02-19T11:14:14;9.60;99.90
8643;DHT22;4359;49.358;11.256;2023-02-19T11:16:49;9.30;99.90
8643;DHT22;4359;49.358;11.256;2023-02-19T11:24:50;9.30;99.90
8643;DHT22;4359;49.358;11.256;2023-02-19T11:27:23;9.30;99.90
8643;DHT22;4359;49.358;11.256;2023-02-19T11:29:49;9.20;99.90
8643;DHT22;4359;49.358;11.256;2023-02-19T11:32:28;9.20;99.90
8643;DHT22;4359;49.358;11.256;2023-02-19T11:35:15;9.20;99.90
8643;DHT22;4359;49.358;11.256;2023-02-19T11:37:57;8.90;99.90
8643;DHT22;4359;49.358;11.256;2023-02-19T11:40:43;8.80;99.90
8643;DHT22;4359;49.358;11.256;2023-02-19T11:46:36;8.80;99.90
8643;DHT22;4359;49.358;11.256;2023-02-19T11:57:42;8.40;99.90
8643;DHT22;4359;49.358;11.256;2023-02-19T12:00:27;8.20;99.90
8643;DHT22;4359;49.358;11.256;2023-02-19T12:06:15;8.00;99.90
8643;DHT22;4359;49.358;11.256;2023-02-19T12:09:11;7.90;99.90
8643;DHT22;4359;49.358;11.256;2023-02-19T12:20:28;8.30;99.90
8643;DHT22;4359;49.358;11.256;2023-02-19T12:26:28;8.40;99.90
8643;DHT22;4359;49.358;11.256;2023-02-19T12:31:37;8.40;99.90
8643;DHT22;4359;49.358;11.256;2023-02-19T12:50:39;9.10;99.90
8643;DHT22;4359;49.358;11.256;2023-02-19T12:53:47;9.10;99.90
8643;DHT22;4359;49.358;11.256;2023-02-19T12:56:16;8.90;99.90
8643;DHT22;4359;49.358;11.256;2023-02-19T12:58:49;8.80;99.90
8643;DHT22;4359;49.358;11.256;2023-02-19T13:01:29;8.70;99.90
8643;DHT22;4359;49.358;11.256;2023-02-19T13:04:23;8.90;99.90
8643;DHT22;4359;49.358;11.256;2023-02-19T13:07:00;9.00;99.90
8643;DHT22;4359;49.358;11.256;2023-02-19T13:09:36;9.00;99.90
8643;DHT22;4359;49.358;11.256;2023-02-19T13:15:26;9.10;99.90
8643;DHT22;4359;49.358;11.256;2023-02-19T13:17:55;9.10;99.90
8643;DHT22;4359;49.358;11.256;2023-02-19T13:20:30;9.00;99.90
8643;DHT22;4359;49.358;11.256;2023-02-19T13:23:22;9.00;99.90
8643;DHT22;4359;49.358;11.256;2023-02-19T13:35:18;9.30;99.90
8643;DHT22;4359;49.358;11.256;2023-02-19T13:37:46;9.30;99.90
8643;DHT22;4359;49.358;11.256;2023-02-19T13:43:06;9.20;99.90
8643;DHT22;4359;49.358;11.256;2023-02-19T13:45:45;9.20;99.90
8643;DHT22;4359;49.358;11.256;2023-02-19T13:50:50;9.10;99.90
8643;DHT22;4359;49.358;11.256;2023-02-19T14:17:37;9.20;99.90
8643;DHT22;4359;49.358;11.256;2023-02-19T14:20:42;9.30;99.90
8643;DHT22;4359;49.358;11.256;2023-02-19T14:23:24;9.30;99.90
8643;DHT22;4359;49.358;11.256;2023-02-19T14:25:53;9.30;99.90
8643;DHT22;4359;49.358;11.256;2023-02-19T14:28:29;9.30;99.90
8643;DHT22;4359;49.358;11.256;2023-02-19T14:30:59;9.30;99.90
8643;DHT22;4359;49.358;11.256;2023-02-19T14:33:44;9.20;99.90
8643;DHT22;4359;49.358;11.256;2023-02-19T14:36:36;9.10;99.90
8643;DHT22;4359;49.358;11.256;2023-02-19T14:39:28;9.00;99.90
8643;DHT22;4359;49.358;11.256;2023-02-19T14:44:34;9.00;99.90
8643;DHT22;4359;49.358;11.256;2023-02-19T14:47:12;8.90;99.90
8643;DHT22;4359;49.358;11.256;2023-02-19T14:49:54;8.90;99.90
8643;DHT22;4359;49.358;11.256;2023-02-19T14:52:26;8.90;99.90
8643;DHT22;4359;49.358;11.256;2023-02-19T14:54:58;8.80;99.90
8643;DHT22;4359;49.358;11.256;2023-02-19T14:57:28;8.80;99.90
8643;DHT22;4359;49.358;11.256;2023-02-19T14:59:57;8.90;99.90
8643;DHT22;4359;49.358;11.256;2023-02-19T15:02:25;8.80;99.90
8643;DHT22;4359;49.358;11.256;2023-02-19T15:04:52;8.70;99.90
8643;DHT22;4359;49.358;11.256;2023-02-19T15:07:24;8.70;99.90
8643;DHT22;4359;49.358;11.256;2023-02-19T15:09:56;8.70;99.90
8643;DHT22;4359;49.358;11.256;2023-02-19T15:12:29;8.70;99.90
8643;DHT22;4359;49.358;11.256;2023-02-19T15:15:00;8.60;99.90
8643;DHT22;4359;49.358;11.256;2023-02-19T15:17:29;8.70;99.90
8643;DHT22;4359;49.358;11.256;2023-02-19T15:19:56;8.70;99.90
8643;DHT22;4359;49.358;11.256;2023-02-19T15:22:24;8.70;99.90
8643;DHT22;4359;49.358;11.256;2023-02-19T15:24:50;8.70;99.90
8643;DHT22;4359;49.358;11.256;2023-02-19T15:27:19;8.70;99.90
8643;DHT22;4359;49.358;11.256;2023-02-19T15:29:47;8.60;99.90
8643;DHT22;4359;49.358;11.256;2023-02-19T15:32:21;8.60;99.90
8643;DHT22;4359;49.358;11.256;2023-02-19T15:34:59;8.70;99.90
8643;DHT22;4359;49.358;11.256;2023-02-19T15:37:27;8.70;99.90
8643;DHT22;4359;49.358;11.256;2023-02-19T15:39:53;8.70;99.90
8643;DHT22;4359;49.358;11.256;2023-02-19T15:42:24;8.70;99.90
8643;DHT22;4359;49.358;11.256;2023-02-19T15:47:46;8.70;99.90
8643;DHT22;4359;49.358;11.256;2023-02-19T15:50:15;8.60;99.90
8643;DHT22;4359;49.358;11.256;2023-02-19T16:00:47;8.30;99.90
8643;DHT22;4359;49.358;11.256;2023-02-19T16:03:16;8.30;99.90
8643;DHT22;4359;49.358;11.256;2023-02-19T16:05:42;8.30;99.90
8643;DHT22;4359;49.358;11.256;2023-02-19T16:08:18;8.30;99.90
8643;DHT22;4359;49.358;11.256;2023-02-19T16:10:55;8.20;99.90
8643;DHT22;4359;49.358;11.256;2023-02-19T16:13:26;8.20;99.90
8643;DHT22;4359;49.358;11.256;2023-02-19T16:15:59;8.20;99.90
8643;DHT22;4359;49.358;11.256;2023-02-19T16:18:25;8.20;99.90
8643;DHT22;4359;49.358;11.256;2023-02-19T16:20:51;8.20;99.90
8643;DHT22;4359;49.358;11.256;2023-02-19T16:23:17;8.20;99.90
8643;DHT22;4359;49.358;11.256;2023-02-19T16:25:48;8.10;99.90
8643;DHT22;4359;49.358;11.256;2023-02-19T16:28:22;8.10;99.90
8643;DHT22;4359;49.358;11.256;2023-02-19T16:31:00;8.00;99.90
8643;DHT22;4359;49.358;11.256;2023-02-19T16:47:05;7.90;99.90
8643;DHT22;4359;49.358;11.256;2023-02-19T16:49:31;7.90;99.90
8643;DHT22;4359;49.358;11.256;2023-02-19T16:52:01;7.90;99.90
8643;DHT22;4359;49.358;11.256;2023-02-19T16:54:28;8.00;99.90
8643;DHT22;4359;49.358;11.256;2023-02-19T16:56:54;8.00;99.90
8643;DHT22;4359;49.358;11.256;2023-02-19T16:59:23;8.00;99.90
8643;DHT22;4359;49.358;11.256;2023-02-19T17:01:48;7.90;99.90
8643;DHT22;4359;49.358;11.256;2023-02-19T17:04:14;7.90;99.90
8643;DHT22;4359;49.358;11.256;2023-02-19T17:06:40;7.80;99.90
8643;DHT22;4359;49.358;11.256;2023-02-19T17:09:07;7.70;99.90
8643;DHT22;4359;49.358;11.256;2023-02-19T17:11:33;7.70;99.90
8643;DHT22;4359;49.358;11.256;2023-02-19T17:13:59;7.60;99.90
8643;DHT22;4359;49.358;11.256;2023-02-19T17:16:30;7.60;99.90
8643;DHT22;4359;49.358;11.256;2023-02-19T17:18:58;7.60;99.90
8643;DHT22;4359;49.358;11.256;2023-02-19T17:21:27;7.50;99.90
8643;DHT22;4359;49.358;11.256;2023-02-19T17:23:54;7.60;99.90
8643;DHT22;4359;49.358;11.256;2023-02-19T17:26:26;7.60;99.90
8643;DHT22;4359;49.358;11.256;2023-02-19T17:28:54;7.60;99.90
8643;DHT22;4359;49.358;11.256;2023-02-19T17:31:20;7.60;99.90
8643;DHT22;4359;49.358;11.256;2023-02-19T17:33:45;7.60;99.90
8643;DHT22;4359;49.358;11.256;2023-02-19T17:36:20;7.60;99.90
8643;DHT22;4359;49.358;11.256;2023-02-19T17:38:48;7.60;99.90
8643;DHT22;4359;49.358;11.256;2023-02-19T17:41:14;7.60;99.90
8643;DHT22;4359;49.358;11.256;2023-02-19T17:43:40;7.70;99.90
8643;DHT22;4359;49.358;11.256;2023-02-19T17:46:05;7.70;99.90
8643;DHT22;4359;49.358;11.256;2023-02-19T17:48:31;7.80;99.90
8643;DHT22;4359;49.358;11.256;2023-02-19T17:50:57;7.80;99.90
8643;DHT22;4359;49.358;11.256;2023-02-19T17:53:22;7.80;99.90
8643;DHT22;4359;49.358;11.256;2023-02-19T17:55:48;7.80;99.90
8643;DHT22;4359;49.358;11.256;2023-02-19T17:58:13;7.70;99.90
8643;DHT22;4359;49.358;11.256;2023-02-19T18:00:39;7.70;99.90
8643;DHT22;4359;49.358;11.256;2023-02-19T18:03:05;7.60;99.90
8643;DHT22;4359;49.358;11.256;2023-02-19T18:05:34;7.60;99.90
8643;DHT22;4359;49.358;11.256;2023-02-19T18:08:00;7.60;99.90
8643;DHT22;4359;49.358;11.256;2023-02-19T18:10:26;7.50;99.90
8643;DHT22;4359;49.358;11.256;2023-02-19T18:12:51;7.50;99.90
8643;DHT22;4359;49.358;11.256;2023-02-19T18:15:19;7.60;99.90
8643;DHT22;4359;49.358;11.256;2023-02-19T18:17:44;7.60;99.90
8643;DHT22;4359;49.358;11.256;2023-02-19T18:20:19;7.60;99.90
8643;DHT22;4359;49.358;11.256;2023-02-19T18:22:45;7.60;99.90
8643;DHT22;4359;49.358;11.256;2023-02-19T18:25:11;7.60;99.90
8643;DHT22;4359;49.358;11.256;2023-02-19T18:27:37;7.60;99.90
8643;DHT22;4359;49.358;11.256;2023-02-19T18:30:03;7.60;99.90
8643;DHT22;4359;49.358;11.256;2023-02-19T18:32:29;7.60;99.90
8643;DHT22;4359;49.358;11.256;2023-02-19T18:34:56;7.60;99.90
8643;DHT22;4359;49.358;11.256;2023-02-19T18:37:23;7.60;99.90
8643;DHT22;4359;49.358;11.256;2023-02-19T18:39:50;7.60;99.90
8643;DHT22;4359;49.358;11.256;2023-02-19T18:42:16;7.60;99.90
8643;DHT22;4359;49.358;11.256;2023-02-19T18:44:42;7.50;99.90
8643;DHT22;4359;49.358;11.256;2023-02-19T18:47:11;7.60;99.90
8643;DHT22;4359;49.358;11.256;2023-02-19T18:49:36;7.60;99.90
8643;DHT22;4359;49.358;11.256;2023-02-19T18:52:02;7.60;99.90
8643;DHT22;4359;49.358;11.256;2023-02-19T18:54:29;7.60;99.90
8643;DHT22;4359;49.358;11.256;2023-02-19T18:56:55;7.70;99.90
8643;DHT22;4359;49.358;11.256;2023-02-19T18:59:21;7.70;99.90
8643;DHT22;4359;49.358;11.256;2023-02-19T19:01:47;7.70;99.90
8643;DHT22;4359;49.358;11.256;2023-02-19T19:04:12;7.60;99.90
8643;DHT22;4359;49.358;11.256;2023-02-19T19:06:38;7.60;99.90
8643;DHT22;4359;49.358;11.256;2023-02-19T19:09:04;7.60;99.90
8643;DHT22;4359;49.358;11.256;2023-02-19T19:11:31;7.60;99.90